sensor_id;sensor_type;location;lat;lon;timestamp;temperature;humidity
8172;DHT22;4127;47.908;10.850;2023-06-14T00:02:11;9.00;99.90
8172;DHT22;4127;47.908;10.850;2023-06-14T00:04:38;9.00;99.90
8172;DHT22;4127;47.908;10.850;2023-06-14T00:07:06;8.90;99.90
8172;DHT22;4127;47.908;10.850;2023-06-14T00:09:37;8.90;99.90
8172;DHT22;4127;47.908;10.850;2023-06-14T00:12:04;8.90;99.90
8172;DHT22;4127;47.908;10.850;2023-06-14T00:14:33;8.90;99.90
8172;DHT22;4127;47.908;10.850;2023-06-14T00:16:59;8.90;99.90
8172;DHT22;4127;47.908;10.850;2023-06-14T00:19:28;8.90;99.90
8172;DHT22;4127;47.908;10.850;2023-06-14T00:21:55;8.80;99.90
8172;DHT22;4127;47.908;10.850;2023-06-14T00:24:23;8.80;99.90
8172;DHT22;4127;47.908;10.850;2023-06-14T00:26:50;8.70;99.90
8172;DHT22;4127;47.908;10.850;2023-06-14T00:29:17;8.70;99.90
8172;DHT22;4127;47.908;10.850;2023-06-14T00:31:44;8.70;99.90
8172;DHT22;4127;47.908;10.850;2023-06-14T00:34:11;8.70;99.90
8172;DHT22;4127;47.908;10.850;2023-06-14T00:36:37;8.60;99.90
8172;DHT22;4127;47.908;10.850;2023-06-14T00:39:04;8.60;99.90
8172;DHT22;4127;47.908;10.850;2023-06-14T00:41:31;8.50;99.90
8172;DHT22;4127;47.908;10.850;2023-06-14T00:43:58;8.40;99.90
8172;DHT22;4127;47.908;10.850;2023-06-14T00:46:26;8.40;99.90
8172;DHT22;4127;47.908;10.850;2023-06-14T00:48:54;8.30;99.90
8172;DHT22;4127;47.908;10.850;2023-06-14T00:51:22;8.30;99.90
8172;DHT22;4127;47.908;10.850;2023-06-14T00:53:50;8.40;99.90
8172;DHT22;4127;47.908;10.850;2023-06-14T00:56:17;8.30;99.90
8172;DHT22;4127;47.908;10.850;2023-06-14T00:58:47;8.20;99.90
8172;DHT22;4127;47.908;10.850;2023-06-14T01:01:14;8.20;99.90
8172;DHT22;4127;47.908;10.850;2023-06-14T01:03:41;8.20;99.90
8172;DHT22;4127;47.908;10.850;2023-06-14T01:07:15;8.10;99.90
8172;DHT22;4127;47.908;10.850;2023-06-14T01:10:20;8.10;99.90
8172;DHT22;4127;47.908;10.850;2023-06-14T01:15:00;8.10;99.90
8172;DHT22;4127;47.908;10.850;2023-06-14T01:17:28;8.00;99.90
8172;DHT22;4127;47.908;10.850;2023-06-14T01:20:01;8.10;99.90
8172;DHT22;4127;47.908;10.850;2023-06-14T01:22:28;8.00;99.90
8172;DHT22;4127;47.908;10.850;2023-06-14T01:24:55;8.00;99.90
8172;DHT22;4127;47.908;10.850;2023-06-14T01:27:26;7.90;99.90
8172;DHT22;4127;47.908;10.850;2023-06-14T01:29:56;7.90;99.90
8172;DHT22;4127;47.908;10.850;2023-06-14T01:32:25;7.90;99.90
8172;DHT22;4127;47.908;10.850;2023-06-14T01:34:53;7.90;99.90
8172;DHT22;4127;47.908;10.850;2023-06-14T01:37:20;7.80;99.90
8172;DHT22;4127;47.908;10.850;2023-06-14T01:39:48;7.80;99.90
8172;DHT22;4127;47.908;10.850;2023-06-14T01:42:19;7.70;99.90
8172;DHT22;4127;47.908;10.850;2023-06-14T01:44:46;7.70;99.90
8172;DHT22;4127;47.908;10.850;2023-06-14T01:47:14;7.70;99.90
8172;DHT22;4127;47.908;10.850;2023-06-14T01:49:41;7.80;99.90
8172;DHT22;4127;47.908;10.850;2023-06-14T01:52:09;7.70;99.90
8172;DHT22;4127;47.908;10.850;2023-06-14T01:54:36;7.70;99.90
8172;DHT22;4127;47.908;10.850;2023-06-14T01:57:08;7.60;99.90
8172;DHT22;4127;47.908;10.850;2023-06-14T01:59:40;7.60;99.90
8172;DHT22;4127;47.908;10.850;2023-06-14T02:02:07;7.60;99.90
8172;DHT22;4127;47.908;10.850;2023-06-14T02:04:34;7.60;99.90
8172;DHT22;4127;47.908;10.850;2023-06-14T02:07:01;7.60;99.90
8172;DHT22;4127;47.908;10.850;2023-06-14T02:09:28;7.60;99.90
8172;DHT22;4127;47.908;10.850;2023-06-14T02:11:55;7.50;99.90
8172;DHT22;4127;47.908;10.850;2023-06-14T02:14:21;7.60;99.90
8172;DHT22;4127;47.908;10.850;2023-06-14T02:16:49;7.50;99.90
8172;DHT22;4127;47.908;10.850;2023-06-14T02:19:17;7.50;99.90
8172;DHT22;4127;47.908;10.850;2023-06-14T02:21:44;7.40;99.90
8172;DHT22;4127;47.908;10.850;2023-06-14T02:24:12;7.40;99.90
8172;DHT22;4127;47.908;10.850;2023-06-14T02:26:39;7.30;99.90
8172;DHT22;4127;47.908;10.850;2023-06-14T02:29:06;7.30;99.90
8172;DHT22;4127;47.908;10.850;2023-06-14T02:31:35;7.30;99.90
8172;DHT22;4127;47.908;10.850;2023-06-14T02:34:02;7.30;99.90
8172;DHT22;4127;47.908;10.850;2023-06-14T02:36:29;7.30;99.90
8172;DHT22;4127;47.908;10.850;2023-06-14T02:38:57;7.30;99.90
8172;DHT22;4127;47.908;10.850;2023-06-14T02:41:24;7.40;99.90
8172;DHT22;4127;47.908;10.850;2023-06-14T02:43:53;7.30;99.90
8172;DHT22;4127;47.908;10.850;2023-06-14T02:46:19;7.30;99.90
8172;DHT22;4127;47.908;10.850;2023-06-14T02:48:46;7.30;99.90
8172;DHT22;4127;47.908;10.850;2023-06-14T02:51:13;7.20;99.90
8172;DHT22;4127;47.908;10.850;2023-06-14T02:53:40;7.30;99.90
8172;DHT22;4127;47.908;10.850;2023-06-14T02:56:07;7.20;99.90
8172;DHT22;4127;47.908;10.850;2023-06-14T02:58:34;7.30;99.90
8172;DHT22;4127;47.908;10.850;2023-06-14T03:01:00;7.20;99.90
8172;DHT22;4127;47.908;10.850;2023-06-14T03:03:30;7.20;99.90
8172;DHT22;4127;47.908;10.850;2023-06-14T03:05:58;7.20;99.90
8172;DHT22;4127;47.908;10.850;2023-06-14T03:08:27;7.20;99.90
8172;DHT22;4127;47.908;10.850;2023-06-14T03:10:55;7.20;99.90
8172;DHT22;4127;47.908;10.850;2023-06-14T03:13:22;7.20;99.90
8172;DHT22;4127;47.908;10.850;2023-06-14T03:15:49;7.30;99.90
8172;DHT22;4127;47.908;10.850;2023-06-14T03:18:17;7.30;99.90
8172;DHT22;4127;47.908;10.850;2023-06-14T03:20:43;7.20;99.90
8172;DHT22;4127;47.908;10.850;2023-06-14T03:23:12;7.20;99.90
8172;DHT22;4127;47.908;10.850;2023-06-14T03:25:39;7.20;99.90
8172;DHT22;4127;47.908;10.850;2023-06-14T03:28:08;7.20;99.90
8172;DHT22;4127;47.908;10.850;2023-06-14T03:30:35;7.10;99.90
8172;DHT22;4127;47.908;10.850;2023-06-14T03:33:02;7.20;99.90
8172;DHT22;4127;47.908;10.850;2023-06-14T03:35:29;7.20;99.90
8172;DHT22;4127;47.908;10.850;2023-06-14T03:37:56;7.20;99.90
8172;DHT22;4127;47.908;10.850;2023-06-14T03:40:23;7.30;99.90
8172;DHT22;4127;47.908;10.850;2023-06-14T03:42:54;7.20;99.90
8172;DHT22;4127;47.908;10.850;2023-06-14T03:45:21;7.20;99.90
8172;DHT22;4127;47.908;10.850;2023-06-14T03:47:48;7.20;99.90
8172;DHT22;4127;47.908;10.850;2023-06-14T03:50:15;7.30;99.90
8172;DHT22;4127;47.908;10.850;2023-06-14T03:52:42;7.20;99.90
8172;DHT22;4127;47.908;10.850;2023-06-14T03:55:10;7.10;99.90
8172;DHT22;4127;47.908;10.850;2023-06-14T03:57:42;7.10;99.90
8172;DHT22;4127;47.908;10.850;2023-06-14T04:00:10;7.20;99.90
8172;DHT22;4127;47.908;10.850;2023-06-14T04:02:38;7.20;99.90
8172;DHT22;4127;47.908;10.850;2023-06-14T04:05:05;7.20;99.90
8172;DHT22;4127;47.908;10.850;2023-06-14T04:07:35;7.30;99.90
8172;DHT22;4127;47.908;10.850;2023-06-14T04:10:07;7.40;99.90
8172;DHT22;4127;47.908;10.850;2023-06-14T04:12:34;7.50;99.90
8172;DHT22;4127;47.908;10.850;2023-06-14T04:15:01;7.70;99.90
8172;DHT22;4127;47.908;10.850;2023-06-14T04:17:45;7.80;99.90
8172;DHT22;4127;47.908;10.850;2023-06-14T04:20:12;7.90;99.90
8172;DHT22;4127;47.908;10.850;2023-06-14T04:22:39;8.00;99.90
8172;DHT22;4127;47.908;10.850;2023-06-14T04:25:08;8.10;99.90
8172;DHT22;4127;47.908;10.850;2023-06-14T04:27:35;8.20;99.90
8172;DHT22;4127;47.908;10.850;2023-06-14T04:30:03;8.20;99.90
8172;DHT22;4127;47.908;10.850;2023-06-14T04:32:30;8.40;99.90
8172;DHT22;4127;47.908;10.850;2023-06-14T04:35:00;8.40;99.90
8172;DHT22;4127;47.908;10.850;2023-06-14T04:37:30;8.50;99.90
8172;DHT22;4127;47.908;10.850;2023-06-14T04:39:57;8.60;99.90
8172;DHT22;4127;47.908;10.850;2023-06-14T04:42:24;8.70;99.90
8172;DHT22;4127;47.908;10.850;2023-06-14T04:44:57;8.90;99.90
8172;DHT22;4127;47.908;10.850;2023-06-14T04:47:24;8.90;99.90
8172;DHT22;4127;47.908;10.850;2023-06-14T04:49:59;9.00;99.90
8172;DHT22;4127;47.908;10.850;2023-06-14T04:52:27;9.10;99.90
8172;DHT22;4127;47.908;10.850;2023-06-14T04:54:56;9.30;99.90
8172;DHT22;4127;47.908;10.850;2023-06-14T04:57:23;9.40;99.90
8172;DHT22;4127;47.908;10.850;2023-06-14T04:59:51;9.70;99.90
8172;DHT22;4127;47.908;10.850;2023-06-14T05:02:22;9.70;99.90
8172;DHT22;4127;47.908;10.850;2023-06-14T05:04:50;9.70;99.90
8172;DHT22;4127;47.908;10.850;2023-06-14T05:07:17;9.90;99.90
8172;DHT22;4127;47.908;10.850;2023-06-14T05:09:45;10.00;99.90
8172;DHT22;4127;47.908;10.850;2023-06-14T05:12:12;10.10;99.90
8172;DHT22;4127;47.908;10.850;2023-06-14T05:14:39;10.30;99.90
8172;DHT22;4127;47.908;10.850;2023-06-14T05:17:06;10.40;99.90
8172;DHT22;4127;47.908;10.850;2023-06-14T05:19:33;10.50;99.90
8172;DHT22;4127;47.908;10.850;2023-06-14T05:22:00;10.70;99.90
8172;DHT22;4127;47.908;10.850;2023-06-14T05:24:29;10.80;99.90
8172;DHT22;4127;47.908;10.850;2023-06-14T05:26:57;11.00;99.90
8172;DHT22;4127;47.908;10.850;2023-06-14T05:29:24;11.10;99.90
8172;DHT22;4127;47.908;10.850;2023-06-14T05:31:54;11.20;99.90
8172;DHT22;4127;47.908;10.850;2023-06-14T05:34:21;11.30;99.90
8172;DHT22;4127;47.908;10.850;2023-06-14T05:36:48;11.40;99.90
8172;DHT22;4127;47.908;10.850;2023-06-14T05:39:15;11.50;99.90
8172;DHT22;4127;47.908;10.850;2023-06-14T05:41:42;11.70;99.90
8172;DHT22;4127;47.908;10.850;2023-06-14T05:44:09;11.80;99.90
8172;DHT22;4127;47.908;10.850;2023-06-14T05:46:36;12.10;99.90
8172;DHT22;4127;47.908;10.850;2023-06-14T05:49:03;12.30;99.90
8172;DHT22;4127;47.908;10.850;2023-06-14T05:51:29;12.60;99.90
8172;DHT22;4127;47.908;10.850;2023-06-14T05:53:56;12.60;99.90
8172;DHT22;4127;47.908;10.850;2023-06-14T05:56:23;12.70;99.90
8172;DHT22;4127;47.908;10.850;2023-06-14T05:58:50;12.80;99.90
8172;DHT22;4127;47.908;10.850;2023-06-14T06:01:17;12.90;99.90
8172;DHT22;4127;47.908;10.850;2023-06-14T06:03:44;13.10;99.90
8172;DHT22;4127;47.908;10.850;2023-06-14T06:06:14;13.20;99.90
8172;DHT22;4127;47.908;10.850;2023-06-14T06:08:42;13.30;99.90
8172;DHT22;4127;47.908;10.850;2023-06-14T06:11:10;13.40;99.90
8172;DHT22;4127;47.908;10.850;2023-06-14T06:13:37;13.60;99.90
8172;DHT22;4127;47.908;10.850;2023-06-14T06:16:05;13.80;99.90
8172;DHT22;4127;47.908;10.850;2023-06-14T06:18:32;13.90;99.90
8172;DHT22;4127;47.908;10.850;2023-06-14T06:20:59;14.10;99.90
8172;DHT22;4127;47.908;10.850;2023-06-14T06:23:26;14.40;99.90
8172;DHT22;4127;47.908;10.850;2023-06-14T06:25:53;14.60;99.90
8172;DHT22;4127;47.908;10.850;2023-06-14T06:28:20;14.60;99.90
8172;DHT22;4127;47.908;10.850;2023-06-14T06:30:47;14.70;99.90
8172;DHT22;4127;47.908;10.850;2023-06-14T06:33:14;14.90;99.90
8172;DHT22;4127;47.908;10.850;2023-06-14T06:35:41;15.00;99.90
8172;DHT22;4127;47.908;10.850;2023-06-14T06:38:08;15.10;97.80
8172;DHT22;4127;47.908;10.850;2023-06-14T06:40:36;15.20;99.00
8172;DHT22;4127;47.908;10.850;2023-06-14T06:43:03;15.30;98.80
8172;DHT22;4127;47.908;10.850;2023-06-14T06:45:30;15.40;97.70
8172;DHT22;4127;47.908;10.850;2023-06-14T06:47:57;15.60;96.90
8172;DHT22;4127;47.908;10.850;2023-06-14T06:50:24;15.80;96.50
8172;DHT22;4127;47.908;10.850;2023-06-14T06:52:51;15.90;94.00
8172;DHT22;4127;47.908;10.850;2023-06-14T06:55:19;16.10;94.70
8172;DHT22;4127;47.908;10.850;2023-06-14T06:57:46;16.10;93.20
8172;DHT22;4127;47.908;10.850;2023-06-14T07:00:13;16.30;91.50
8172;DHT22;4127;47.908;10.850;2023-06-14T07:02:41;16.40;91.00
8172;DHT22;4127;47.908;10.850;2023-06-14T07:05:08;16.50;91.40
8172;DHT22;4127;47.908;10.850;2023-06-14T07:07:35;16.50;90.90
8172;DHT22;4127;47.908;10.850;2023-06-14T07:10:03;16.70;92.00
8172;DHT22;4127;47.908;10.850;2023-06-14T07:12:32;17.10;91.30
8172;DHT22;4127;47.908;10.850;2023-06-14T07:15:00;17.30;90.90
8172;DHT22;4127;47.908;10.850;2023-06-14T07:17:27;17.40;90.40
8172;DHT22;4127;47.908;10.850;2023-06-14T07:19:54;17.40;90.10
8172;DHT22;4127;47.908;10.850;2023-06-14T07:22:21;17.50;90.90
8172;DHT22;4127;47.908;10.850;2023-06-14T07:24:48;17.50;92.20
8172;DHT22;4127;47.908;10.850;2023-06-14T07:27:14;17.70;90.30
8172;DHT22;4127;47.908;10.850;2023-06-14T07:29:41;17.80;91.00
8172;DHT22;4127;47.908;10.850;2023-06-14T07:32:08;17.80;90.60
8172;DHT22;4127;47.908;10.850;2023-06-14T07:34:35;18.00;90.50
8172;DHT22;4127;47.908;10.850;2023-06-14T07:37:02;18.30;88.30
8172;DHT22;4127;47.908;10.850;2023-06-14T07:39:29;18.40;85.90
8172;DHT22;4127;47.908;10.850;2023-06-14T07:41:55;18.50;85.90
8172;DHT22;4127;47.908;10.850;2023-06-14T07:44:22;18.60;87.90
8172;DHT22;4127;47.908;10.850;2023-06-14T07:46:49;18.70;87.90
8172;DHT22;4127;47.908;10.850;2023-06-14T07:49:17;18.50;87.90
8172;DHT22;4127;47.908;10.850;2023-06-14T07:51:44;18.80;82.80
8172;DHT22;4127;47.908;10.850;2023-06-14T07:54:11;19.00;83.40
8172;DHT22;4127;47.908;10.850;2023-06-14T07:56:38;19.20;80.30
8172;DHT22;4127;47.908;10.850;2023-06-14T07:59:06;19.20;82.70
8172;DHT22;4127;47.908;10.850;2023-06-14T08:01:34;19.20;80.00
8172;DHT22;4127;47.908;10.850;2023-06-14T08:04:01;19.10;81.80
8172;DHT22;4127;47.908;10.850;2023-06-14T08:06:28;19.20;76.10
8172;DHT22;4127;47.908;10.850;2023-06-14T08:08:55;19.40;75.50
8172;DHT22;4127;47.908;10.850;2023-06-14T08:11:22;19.40;74.40
8172;DHT22;4127;47.908;10.850;2023-06-14T08:13:50;19.00;72.70
8172;DHT22;4127;47.908;10.850;2023-06-14T08:16:17;19.30;77.60
8172;DHT22;4127;47.908;10.850;2023-06-14T08:18:44;19.30;76.60
8172;DHT22;4127;47.908;10.850;2023-06-14T08:21:11;19.20;73.60
8172;DHT22;4127;47.908;10.850;2023-06-14T08:23:39;19.50;74.00
8172;DHT22;4127;47.908;10.850;2023-06-14T08:26:06;19.90;76.00
8172;DHT22;4127;47.908;10.850;2023-06-14T08:28:36;19.50;75.70
8172;DHT22;4127;47.908;10.850;2023-06-14T08:31:03;19.60;74.80
8172;DHT22;4127;47.908;10.850;2023-06-14T08:33:30;19.90;72.60
8172;DHT22;4127;47.908;10.850;2023-06-14T08:36:00;20.00;71.80
8172;DHT22;4127;47.908;10.850;2023-06-14T08:38:27;20.10;71.00
8172;DHT22;4127;47.908;10.850;2023-06-14T08:40:57;20.20;73.80
8172;DHT22;4127;47.908;10.850;2023-06-14T08:43:25;20.00;71.10
8172;DHT22;4127;47.908;10.850;2023-06-14T08:45:58;20.30;73.50
8172;DHT22;4127;47.908;10.850;2023-06-14T08:48:28;20.70;71.10
8172;DHT22;4127;47.908;10.850;2023-06-14T08:50:56;20.40;70.40
8172;DHT22;4127;47.908;10.850;2023-06-14T08:53:31;20.10;67.10
8172;DHT22;4127;47.908;10.850;2023-06-14T08:56:02;20.40;72.30
8172;DHT22;4127;47.908;10.850;2023-06-14T08:58:31;20.40;72.10
8172;DHT22;4127;47.908;10.850;2023-06-14T09:01:04;20.60;72.50
8172;DHT22;4127;47.908;10.850;2023-06-14T09:03:32;20.70;70.90
8172;DHT22;4127;47.908;10.850;2023-06-14T09:06:00;20.70;69.40
8172;DHT22;4127;47.908;10.850;2023-06-14T09:08:28;20.70;70.80
8172;DHT22;4127;47.908;10.850;2023-06-14T09:10:57;20.80;67.60
8172;DHT22;4127;47.908;10.850;2023-06-14T09:13:26;21.30;66.60
8172;DHT22;4127;47.908;10.850;2023-06-14T09:15:57;21.70;67.00
8172;DHT22;4127;47.908;10.850;2023-06-14T09:18:37;21.50;66.30
8172;DHT22;4127;47.908;10.850;2023-06-14T09:21:09;21.10;66.50
8172;DHT22;4127;47.908;10.850;2023-06-14T09:23:37;20.80;67.80
8172;DHT22;4127;47.908;10.850;2023-06-14T09:26:12;20.70;68.10
8172;DHT22;4127;47.908;10.850;2023-06-14T09:28:47;21.30;66.80
8172;DHT22;4127;47.908;10.850;2023-06-14T09:31:18;21.40;67.40
8172;DHT22;4127;47.908;10.850;2023-06-14T09:33:48;20.90;65.20
8172;DHT22;4127;47.908;10.850;2023-06-14T09:36:22;21.70;69.00
8172;DHT22;4127;47.908;10.850;2023-06-14T09:38:58;21.70;65.80
8172;DHT22;4127;47.908;10.850;2023-06-14T09:41:36;21.60;63.40
8172;DHT22;4127;47.908;10.850;2023-06-14T09:44:04;21.70;62.80
8172;DHT22;4127;47.908;10.850;2023-06-14T09:46:37;21.90;66.00
8172;DHT22;4127;47.908;10.850;2023-06-14T09:49:05;22.20;62.10
8172;DHT22;4127;47.908;10.850;2023-06-14T09:51:33;22.20;63.70
8172;DHT22;4127;47.908;10.850;2023-06-14T09:54:03;22.80;65.30
8172;DHT22;4127;47.908;10.850;2023-06-14T09:56:37;22.30;60.30
8172;DHT22;4127;47.908;10.850;2023-06-14T09:59:09;22.10;61.60
8172;DHT22;4127;47.908;10.850;2023-06-14T10:01:41;21.70;59.80
8172;DHT22;4127;47.908;10.850;2023-06-14T10:04:09;22.10;60.60
8172;DHT22;4127;47.908;10.850;2023-06-14T10:06:40;22.00;58.20
8172;DHT22;4127;47.908;10.850;2023-06-14T10:09:09;22.50;57.90
8172;DHT22;4127;47.908;10.850;2023-06-14T10:11:36;23.00;59.60
8172;DHT22;4127;47.908;10.850;2023-06-14T10:14:05;22.80;58.50
8172;DHT22;4127;47.908;10.850;2023-06-14T10:16:33;22.10;56.90
8172;DHT22;4127;47.908;10.850;2023-06-14T10:19:20;21.80;59.30
8172;DHT22;4127;47.908;10.850;2023-06-14T10:21:58;22.70;59.50
8172;DHT22;4127;47.908;10.850;2023-06-14T10:24:33;22.90;56.00
8172;DHT22;4127;47.908;10.850;2023-06-14T10:27:00;22.90;57.00
8172;DHT22;4127;47.908;10.850;2023-06-14T10:29:28;22.60;58.90
8172;DHT22;4127;47.908;10.850;2023-06-14T10:32:00;22.90;58.20
8172;DHT22;4127;47.908;10.850;2023-06-14T10:34:28;22.60;58.70
8172;DHT22;4127;47.908;10.850;2023-06-14T10:37:03;22.90;57.20
8172;DHT22;4127;47.908;10.850;2023-06-14T10:39:31;23.60;56.60
8172;DHT22;4127;47.908;10.850;2023-06-14T10:42:01;23.70;56.20
8172;DHT22;4127;47.908;10.850;2023-06-14T10:44:39;23.90;56.30
8172;DHT22;4127;47.908;10.850;2023-06-14T10:47:20;23.50;57.00
8172;DHT22;4127;47.908;10.850;2023-06-14T10:49:52;22.60;55.90
8172;DHT22;4127;47.908;10.850;2023-06-14T10:52:27;22.30;54.50
8172;DHT22;4127;47.908;10.850;2023-06-14T10:55:04;22.40;56.10
8172;DHT22;4127;47.908;10.850;2023-06-14T10:57:34;22.80;56.50
8172;DHT22;4127;47.908;10.850;2023-06-14T11:00:18;22.70;55.70
8172;DHT22;4127;47.908;10.850;2023-06-14T11:02:51;22.60;56.10
8172;DHT22;4127;47.908;10.850;2023-06-14T11:05:26;22.50;55.40
8172;DHT22;4127;47.908;10.850;2023-06-14T11:10:37;23.10;54.70
8172;DHT22;4127;47.908;10.850;2023-06-14T11:13:05;23.20;53.70
8172;DHT22;4127;47.908;10.850;2023-06-14T11:15:33;23.50;57.20
8172;DHT22;4127;47.908;10.850;2023-06-14T11:18:01;24.10;54.40
8172;DHT22;4127;47.908;10.850;2023-06-14T11:20:31;24.20;55.90
8172;DHT22;4127;47.908;10.850;2023-06-14T11:22:58;23.90;55.30
8172;DHT22;4127;47.908;10.850;2023-06-14T11:25:26;24.20;52.80
8172;DHT22;4127;47.908;10.850;2023-06-14T11:27:55;23.80;53.20
8172;DHT22;4127;47.908;10.850;2023-06-14T11:30:23;23.70;53.20
8172;DHT22;4127;47.908;10.850;2023-06-14T11:32:51;23.70;51.20
8172;DHT22;4127;47.908;10.850;2023-06-14T11:35:25;24.30;53.30
8172;DHT22;4127;47.908;10.850;2023-06-14T11:37:55;25.10;52.40
8172;DHT22;4127;47.908;10.850;2023-06-14T11:40:24;25.10;53.30
8172;DHT22;4127;47.908;10.850;2023-06-14T11:42:58;24.60;52.90
8172;DHT22;4127;47.908;10.850;2023-06-14T11:45:26;24.00;53.70
8172;DHT22;4127;47.908;10.850;2023-06-14T11:47:58;23.30;51.80
8172;DHT22;4127;47.908;10.850;2023-06-14T11:50:27;23.50;54.00
8172;DHT22;4127;47.908;10.850;2023-06-14T11:52:55;23.90;53.10
8172;DHT22;4127;47.908;10.850;2023-06-14T11:55:23;24.00;51.50
8172;DHT22;4127;47.908;10.850;2023-06-14T11:57:50;24.40;52.70
8172;DHT22;4127;47.908;10.850;2023-06-14T12:00:18;24.30;51.60
8172;DHT22;4127;47.908;10.850;2023-06-14T12:02:56;23.20;51.40
8172;DHT22;4127;47.908;10.850;2023-06-14T12:05:25;23.60;52.30
8172;DHT22;4127;47.908;10.850;2023-06-14T12:08:00;23.50;52.10
8172;DHT22;4127;47.908;10.850;2023-06-14T12:10:28;24.00;52.50
8172;DHT22;4127;47.908;10.850;2023-06-14T12:12:59;24.30;49.10
8172;DHT22;4127;47.908;10.850;2023-06-14T12:15:29;25.00;47.70
8172;DHT22;4127;47.908;10.850;2023-06-14T12:17:57;25.40;49.30
8172;DHT22;4127;47.908;10.850;2023-06-14T12:20:29;23.70;50.80
8172;DHT22;4127;47.908;10.850;2023-06-14T12:22:59;23.00;51.90
8172;DHT22;4127;47.908;10.850;2023-06-14T12:25:37;23.30;52.00
8172;DHT22;4127;47.908;10.850;2023-06-14T12:28:07;23.50;52.10
8172;DHT22;4127;47.908;10.850;2023-06-14T12:30:36;23.50;51.20
8172;DHT22;4127;47.908;10.850;2023-06-14T12:33:03;23.40;50.60
8172;DHT22;4127;47.908;10.850;2023-06-14T12:35:31;23.50;50.00
8172;DHT22;4127;47.908;10.850;2023-06-14T12:37:58;23.30;50.30
8172;DHT22;4127;47.908;10.850;2023-06-14T12:40:25;23.30;52.40
8172;DHT22;4127;47.908;10.850;2023-06-14T12:42:53;22.90;52.60
8172;DHT22;4127;47.908;10.850;2023-06-14T12:45:19;22.30;53.80
8172;DHT22;4127;47.908;10.850;2023-06-14T12:47:47;21.70;54.00
8172;DHT22;4127;47.908;10.850;2023-06-14T12:50:14;21.20;54.20
8172;DHT22;4127;47.908;10.850;2023-06-14T12:52:41;21.20;55.90
8172;DHT22;4127;47.908;10.850;2023-06-14T12:55:08;22.00;54.80
8172;DHT22;4127;47.908;10.850;2023-06-14T12:57:36;22.50;54.50
8172;DHT22;4127;47.908;10.850;2023-06-14T13:00:05;22.80;53.10
8172;DHT22;4127;47.908;10.850;2023-06-14T13:02:34;23.20;51.80
8172;DHT22;4127;47.908;10.850;2023-06-14T13:05:01;23.30;53.20
8172;DHT22;4127;47.908;10.850;2023-06-14T13:07:30;23.70;53.30
8172;DHT22;4127;47.908;10.850;2023-06-14T13:09:57;23.90;52.70
8172;DHT22;4127;47.908;10.850;2023-06-14T13:12:24;23.30;54.50
8172;DHT22;4127;47.908;10.850;2023-06-14T13:14:51;22.90;54.50
8172;DHT22;4127;47.908;10.850;2023-06-14T13:17:18;22.90;55.80
8172;DHT22;4127;47.908;10.850;2023-06-14T13:19:45;22.80;55.00
8172;DHT22;4127;47.908;10.850;2023-06-14T13:22:12;22.70;55.50
8172;DHT22;4127;47.908;10.850;2023-06-14T13:24:39;21.80;54.60
8172;DHT22;4127;47.908;10.850;2023-06-14T13:27:06;22.30;55.20
8172;DHT22;4127;47.908;10.850;2023-06-14T13:29:33;22.70;54.30
8172;DHT22;4127;47.908;10.850;2023-06-14T13:32:03;22.70;54.50
8172;DHT22;4127;47.908;10.850;2023-06-14T13:34:30;22.50;53.10
8172;DHT22;4127;47.908;10.850;2023-06-14T13:36:57;22.80;54.00
8172;DHT22;4127;47.908;10.850;2023-06-14T13:39:26;23.20;52.50
8172;DHT22;4127;47.908;10.850;2023-06-14T13:41:53;23.30;50.10
8172;DHT22;4127;47.908;10.850;2023-06-14T13:44:20;23.10;48.90
8172;DHT22;4127;47.908;10.850;2023-06-14T13:46:48;23.50;49.70
8172;DHT22;4127;47.908;10.850;2023-06-14T13:49:14;23.50;52.70
8172;DHT22;4127;47.908;10.850;2023-06-14T13:51:41;23.30;50.70
8172;DHT22;4127;47.908;10.850;2023-06-14T13:54:08;23.30;53.40
8172;DHT22;4127;47.908;10.850;2023-06-14T13:56:35;23.30;55.40
8172;DHT22;4127;47.908;10.850;2023-06-14T13:59:03;23.50;56.20
8172;DHT22;4127;47.908;10.850;2023-06-14T14:01:30;22.80;54.30
8172;DHT22;4127;47.908;10.850;2023-06-14T14:03:57;22.70;55.50
8172;DHT22;4127;47.908;10.850;2023-06-14T14:06:25;22.40;53.40
8172;DHT22;4127;47.908;10.850;2023-06-14T14:08:52;22.80;55.10
8172;DHT22;4127;47.908;10.850;2023-06-14T14:11:20;22.90;53.30
8172;DHT22;4127;47.908;10.850;2023-06-14T14:13:47;22.80;55.00
8172;DHT22;4127;47.908;10.850;2023-06-14T14:16:14;23.20;53.30
8172;DHT22;4127;47.908;10.850;2023-06-14T14:18:42;22.90;52.50
8172;DHT22;4127;47.908;10.850;2023-06-14T14:21:09;22.70;53.90
8172;DHT22;4127;47.908;10.850;2023-06-14T14:23:36;22.80;53.00
8172;DHT22;4127;47.908;10.850;2023-06-14T14:26:05;23.00;50.90
8172;DHT22;4127;47.908;10.850;2023-06-14T14:28:32;23.00;51.20
8172;DHT22;4127;47.908;10.850;2023-06-14T14:31:01;23.20;51.30
8172;DHT22;4127;47.908;10.850;2023-06-14T14:33:27;22.90;52.50
8172;DHT22;4127;47.908;10.850;2023-06-14T14:35:54;22.50;52.40
8172;DHT22;4127;47.908;10.850;2023-06-14T14:38:21;22.70;51.80
8172;DHT22;4127;47.908;10.850;2023-06-14T14:40:48;23.00;52.70
8172;DHT22;4127;47.908;10.850;2023-06-14T14:43:15;23.20;53.50
8172;DHT22;4127;47.908;10.850;2023-06-14T14:45:42;23.40;52.70
8172;DHT22;4127;47.908;10.850;2023-06-14T14:48:09;23.00;50.50
8172;DHT22;4127;47.908;10.850;2023-06-14T14:50:36;22.60;52.00
8172;DHT22;4127;47.908;10.850;2023-06-14T14:53:04;22.70;51.70
8172;DHT22;4127;47.908;10.850;2023-06-14T14:55:31;23.00;53.00
8172;DHT22;4127;47.908;10.850;2023-06-14T14:58:01;23.00;51.60
8172;DHT22;4127;47.908;10.850;2023-06-14T15:00:29;23.00;53.10
8172;DHT22;4127;47.908;10.850;2023-06-14T15:02:55;22.60;52.30
8172;DHT22;4127;47.908;10.850;2023-06-14T15:05:23;22.80;52.30
8172;DHT22;4127;47.908;10.850;2023-06-14T15:07:49;23.00;54.50
8172;DHT22;4127;47.908;10.850;2023-06-14T15:10:16;22.90;54.90
8172;DHT22;4127;47.908;10.850;2023-06-14T15:12:44;22.80;53.40
8172;DHT22;4127;47.908;10.850;2023-06-14T15:15:10;23.10;53.30
8172;DHT22;4127;47.908;10.850;2023-06-14T15:17:37;23.20;53.60
8172;DHT22;4127;47.908;10.850;2023-06-14T15:20:05;22.90;51.20
8172;DHT22;4127;47.908;10.850;2023-06-14T15:22:32;22.80;51.70
8172;DHT22;4127;47.908;10.850;2023-06-14T15:24:59;22.60;52.50
8172;DHT22;4127;47.908;10.850;2023-06-14T15:27:26;22.40;53.00
8172;DHT22;4127;47.908;10.850;2023-06-14T15:29:54;22.80;51.20
8172;DHT22;4127;47.908;10.850;2023-06-14T15:32:21;23.30;51.50
8172;DHT22;4127;47.908;10.850;2023-06-14T15:34:48;22.80;53.40
8172;DHT22;4127;47.908;10.850;2023-06-14T15:37:15;22.80;51.50
8172;DHT22;4127;47.908;10.850;2023-06-14T15:39:42;22.70;52.70
8172;DHT22;4127;47.908;10.850;2023-06-14T15:42:08;22.40;53.50
8172;DHT22;4127;47.908;10.850;2023-06-14T15:44:36;22.60;54.30
8172;DHT22;4127;47.908;10.850;2023-06-14T15:47:03;22.20;54.00
8172;DHT22;4127;47.908;10.850;2023-06-14T15:49:30;22.20;54.80
8172;DHT22;4127;47.908;10.850;2023-06-14T15:51:57;22.30;54.00
8172;DHT22;4127;47.908;10.850;2023-06-14T15:54:24;22.30;53.40
8172;DHT22;4127;47.908;10.850;2023-06-14T15:56:51;22.10;53.50
8172;DHT22;4127;47.908;10.850;2023-06-14T15:59:18;22.20;51.80
8172;DHT22;4127;47.908;10.850;2023-06-14T16:01:45;22.00;52.70
8172;DHT22;4127;47.908;10.850;2023-06-14T16:04:12;21.70;53.30